createdAt,value
2023-02-22T00:01:35.381Z,97214.66
2023-02-22T00:04:07.116Z,97220.38
2023-02-22T00:06:34.159Z,97213.59
2023-02-22T00:09:02.461Z,97223.22
2023-02-22T00:11:29.479Z,97215.59
2023-02-22T00:14:01.832Z,97217.81
2023-02-22T00:16:29.928Z,97220.38
2023-02-22T00:19:01.286Z,97218.34
2023-02-22T00:21:31.245Z,97216.56
2023-02-22T00:23:57.852Z,97214.59
2023-02-22T00:26:26.076Z,97216.78
2023-02-22T00:29:19.543Z,97214.88
2023-02-22T00:31:51.219Z,97209.97
2023-02-22T00:34:18.863Z,97214.84
2023-02-22T00:36:48.682Z,97216.69
2023-02-22T00:39:16.546Z,97211.69
2023-02-22T00:41:43.528Z,97223.22
2023-02-22T00:44:10.320Z,97212.25
2023-02-22T00:46:37.413Z,97216.25
2023-02-22T00:49:06.556Z,97212.19
2023-02-22T00:51:35.702Z,97217.47
2023-02-22T00:54:10.450Z,97210.59
2023-02-22T00:56:40.010Z,97217.25
2023-02-22T00:59:12.157Z,97217.56
2023-02-22T01:01:43.590Z,97224.03
2023-02-22T01:04:15.729Z,97219.78
2023-02-22T01:06:42.468Z,97228.63
2023-02-22T01:09:11.372Z,97214.63
2023-02-22T01:11:38.060Z,97214.78
2023-02-22T01:14:04.844Z,97214.63
2023-02-22T01:16:35.616Z,97213.94
2023-02-22T01:19:02.364Z,97213.28
2023-02-22T01:21:33.682Z,97214.38
2023-02-22T01:24:00.456Z,97224.84
2023-02-22T01:26:27.166Z,97216.78
2023-02-22T01:28:53.908Z,97212.16
2023-02-22T01:31:22.070Z,97219.19
2023-02-22T01:33:48.789Z,97220.31
2023-02-22T01:36:15.880Z,97210.09
2023-02-22T01:38:42.954Z,97210.78
2023-02-22T01:41:12.463Z,97217.75
2023-02-22T01:43:41.752Z,97215.22
2023-02-22T01:46:26.893Z,97221.47
2023-02-22T01:49:05.623Z,97216.16
2023-02-22T01:51:39.082Z,97209.06
2023-02-22T01:54:20.921Z,97219.31
2023-02-22T01:57:06.423Z,97211.44
2023-02-22T01:59:36.740Z,97215.78
2023-02-22T02:02:04.663Z,97211.19
2023-02-22T02:04:38.989Z,97217.38
2023-02-22T02:07:07.503Z,97224.41
2023-02-22T02:09:46.790Z,97221.91
2023-02-22T02:12:25.664Z,97218.13
2023-02-22T02:14:52.794Z,97227.66
2023-02-22T02:17:23.044Z,97226.81
2023-02-22T02:20:00.933Z,97223.38
2023-02-22T02:23:16.518Z,97214.63
2023-02-22T02:26:10.976Z,97215.78
2023-02-22T02:29:10.834Z,97220.00
2023-02-22T02:32:08.665Z,97222.03
2023-02-22T02:34:58.821Z,97225.81
2023-02-22T02:37:27.602Z,97224.22
2023-02-22T02:40:12.264Z,97221.53
2023-02-22T02:42:46.298Z,97220.97
2023-02-22T02:45:24.036Z,97223.84
2023-02-22T02:48:06.543Z,97226.59
2023-02-22T02:50:48.702Z,97221.50
2023-02-22T02:53:24.401Z,97222.47
2023-02-22T02:55:53.722Z,97233.06
2023-02-22T02:58:25.471Z,97237.63
2023-02-22T03:00:56.115Z,97238.47
2023-02-22T03:03:29.293Z,97242.06
2023-02-22T03:06:02.100Z,97246.41
2023-02-22T03:09:27.751Z,97248.94
2023-02-22T03:12:01.861Z,97247.28
2023-02-22T03:17:36.879Z,97249.25
2023-02-22T03:20:12.400Z,97255.34
2023-02-22T03:22:59.445Z,97264.16
2023-02-22T03:25:47.270Z,97265.03
2023-02-22T03:31:18.858Z,97270.38
2023-02-22T03:34:23.966Z,97275.84
2023-02-22T03:37:02.393Z,97273.41
2023-02-22T03:39:35.759Z,97274.31
2023-02-22T03:42:14.708Z,97277.16
2023-02-22T03:44:48.735Z,97274.31
2023-02-22T03:47:24.772Z,97283.44
2023-02-22T03:50:10.061Z,97289.66
2023-02-22T03:52:37.740Z,97283.47
2023-02-22T03:55:11.243Z,97288.72
2023-02-22T03:57:41.740Z,97287.19
2023-02-22T04:00:11.235Z,97289.97
2023-02-22T04:02:42.508Z,97289.75
2023-02-22T04:05:17.890Z,97298.50
2023-02-22T04:07:47.825Z,97289.22
2023-02-22T04:10:16.135Z,97292.06
2023-02-22T04:12:52.586Z,97290.56
2023-02-22T04:15:34.716Z,97289.91
2023-02-22T04:18:10.152Z,97292.72
2023-02-22T04:20:39.393Z,97287.47
2023-02-22T04:23:08.571Z,97296.34
2023-02-22T04:25:35.298Z,97296.47
2023-02-22T04:28:04.391Z,97293.91
2023-02-22T04:30:45.136Z,97288.75
2023-02-22T04:33:19.638Z,97288.78
2023-02-22T04:35:50.947Z,97293.19
2023-02-22T04:38:17.691Z,97293.09
2023-02-22T04:40:44.317Z,97294.78
2023-02-22T04:43:13.872Z,97296.53
2023-02-22T04:45:41.029Z,97296.44
2023-02-22T04:48:08.014Z,97303.47
2023-02-22T04:50:35.236Z,97296.28
2023-02-22T04:53:04.555Z,97306.88
2023-02-22T04:55:31.221Z,97317.44
2023-02-22T04:58:00.444Z,97315.72
2023-02-22T05:00:27.190Z,97318.22
2023-02-22T05:02:53.884Z,97316.75
2023-02-22T05:05:21.776Z,97318.72
2023-02-22T05:07:51.848Z,97317.94
2023-02-22T05:10:18.788Z,97314.34
2023-02-22T05:12:48.148Z,97313.38
2023-02-22T05:15:19.119Z,97316.75
2023-02-22T05:17:47.554Z,97310.41
2023-02-22T05:20:35.422Z,97312.09
2023-02-22T05:23:05.481Z,97312.97
2023-02-22T05:25:33.362Z,97310.41
2023-02-22T05:28:01.475Z,97310.47
2023-02-22T05:30:30.195Z,97320.09
2023-02-22T05:32:59.037Z,97320.03
2023-02-22T05:35:25.912Z,97311.22
2023-02-22T05:37:52.615Z,97320.91
2023-02-22T05:40:22.515Z,97332.31
2023-02-22T05:42:59.913Z,97333.72
2023-02-22T05:45:27.676Z,97332.81
2023-02-22T05:47:57.632Z,97340.47
2023-02-22T05:50:25.084Z,97344.81
2023-02-22T05:52:54.781Z,97349.22
2023-02-22T05:55:26.363Z,97348.44
2023-02-22T05:57:53.403Z,97348.53
2023-02-22T06:00:30.609Z,97349.56
2023-02-22T06:03:06.849Z,97340.94
2023-02-22T06:05:38.855Z,97350.75
2023-02-22T06:08:09.996Z,97356.03
2023-02-22T06:10:36.630Z,97360.25
2023-02-22T06:13:04.347Z,97367.25
2023-02-22T06:15:31.657Z,97369.06
2023-02-22T06:17:59.105Z,97372.59
2023-02-22T06:20:33.249Z,97372.84
2023-02-22T06:23:04.824Z,97375.50
2023-02-22T06:25:36.960Z,97370.31
2023-02-22T06:28:06.773Z,97376.34
2023-02-22T06:30:34.092Z,97384.00
2023-02-22T06:33:00.925Z,97386.28
2023-02-22T06:35:27.678Z,97388.84
2023-02-22T06:37:54.542Z,97397.25
2023-02-22T06:40:23.575Z,97398.31
2023-02-22T06:42:50.325Z,97403.94
2023-02-22T06:45:18.189Z,97399.16
2023-02-22T06:47:47.589Z,97400.75
2023-02-22T06:50:28.481Z,97407.47
2023-02-22T06:52:57.909Z,97410.03
2023-02-22T06:55:28.726Z,97408.25
2023-02-22T06:57:58.447Z,97412.34
2023-02-22T07:00:27.226Z,97409.13
2023-02-22T07:03:00.357Z,97411.34
2023-02-22T07:05:29.087Z,97408.53
2023-02-22T07:08:11.309Z,97403.16
2023-02-22T07:10:40.099Z,97403.69
2023-02-22T07:13:08.847Z,97414.84
2023-02-22T07:15:40.251Z,97415.56
2023-02-22T07:18:07.494Z,97416.00
2023-02-22T07:20:42.743Z,97414.09
2023-02-22T07:23:11.991Z,97422.00
2023-02-22T07:25:38.913Z,97410.09
2023-02-22T07:28:06.018Z,97408.81
2023-02-22T07:30:36.962Z,97414.66
2023-02-22T07:33:09.466Z,97413.59
2023-02-22T07:35:37.632Z,97414.84
2023-02-22T07:38:06.378Z,97416.63
2023-02-22T07:40:37.024Z,97414.56
2023-02-22T07:43:23.839Z,97419.47
2023-02-22T07:45:52.002Z,97421.03
2023-02-22T07:48:21.115Z,97424.56
2023-02-22T07:50:47.758Z,97421.16
2023-02-22T07:53:33.676Z,97421.44
2023-02-22T07:56:01.535Z,97424.44
2023-02-22T07:58:29.855Z,97427.16
2023-02-22T08:00:57.003Z,97421.44
2023-02-22T08:03:26.751Z,97432.19
2023-02-22T08:05:57.894Z,97422.84
2023-02-22T08:08:27.440Z,97421.91
2023-02-22T08:10:53.927Z,97420.94
2023-02-22T08:13:22.292Z,97424.88
2023-02-22T08:15:52.028Z,97425.31
2023-02-22T08:18:19.844Z,97417.91
2023-02-22T08:20:47.607Z,97420.41
2023-02-22T08:23:15.377Z,97424.63
2023-02-22T08:25:42.169Z,97424.50
2023-02-22T08:28:10.487Z,97418.75
2023-02-22T08:30:40.282Z,97423.25
2023-02-22T08:33:07.200Z,97418.47
2023-02-22T08:35:34.102Z,97425.50
2023-02-22T08:38:06.422Z,97425.69
2023-02-22T08:40:39.390Z,97430.09
2023-02-22T08:43:06.688Z,97440.91
2023-02-22T08:45:33.549Z,97445.94
2023-02-22T08:48:02.480Z,97446.72
2023-02-22T08:50:38.328Z,97441.59
2023-02-22T08:53:09.348Z,97434.25
2023-02-22T08:55:41.628Z,97451.03
2023-02-22T08:58:13.892Z,97446.25
2023-02-22T09:00:41.071Z,97446.72
2023-02-22T09:03:09.283Z,97440.81
2023-02-22T09:05:35.871Z,97440.91
2023-02-22T09:08:02.898Z,97436.13
2023-02-22T09:10:30.754Z,97433.03
2023-02-22T09:12:57.694Z,97424.19
2023-02-22T09:15:28.616Z,97428.91
2023-02-22T09:17:55.793Z,97423.47
2023-02-22T09:20:25.511Z,97429.13
2023-02-22T09:22:53.225Z,97418.97
2023-02-22T09:25:30.079Z,97426.09
2023-02-22T09:27:59.061Z,97427.75
2023-02-22T09:30:45.890Z,97424.03
2023-02-22T09:33:18.026Z,97412.16
2023-02-22T09:35:54.000Z,97422.38
2023-02-22T09:38:26.196Z,97415.28
2023-02-22T09:40:55.237Z,97425.41
2023-02-22T09:43:55.401Z,97428.91
2023-02-22T09:46:24.715Z,97412.06
2023-02-22T09:49:01.665Z,97423.63
2023-02-22T09:51:55.860Z,97432.25
2023-02-22T09:54:58.440Z,97424.63
2023-02-22T09:57:37.452Z,97423.28
2023-02-22T10:00:17.861Z,97420.66
2023-02-22T10:02:48.964Z,97422.63
2023-02-22T10:05:20.313Z,97426.56
2023-02-22T10:07:53.277Z,97419.50
2023-02-22T10:10:26.354Z,97428.19
2023-02-22T10:12:55.334Z,97416.34
2023-02-22T10:15:32.283Z,97410.22
2023-02-22T10:18:01.477Z,97405.34
2023-02-22T10:21:00.557Z,97413.84
2023-02-22T10:24:58.429Z,97398.44
2023-02-22T10:27:48.035Z,97391.09
2023-02-22T10:30:25.824Z,97394.66
2023-02-22T10:33:03.360Z,97392.50
2023-02-22T10:35:35.546Z,97399.66
2023-02-22T10:38:20.478Z,97387.44
2023-02-22T10:40:50.330Z,97375.91
2023-02-22T10:43:20.973Z,97381.88
2023-02-22T10:45:53.068Z,97372.09
2023-02-22T10:48:21.164Z,97372.47
2023-02-22T10:50:51.155Z,97371.69
2023-02-22T10:53:24.407Z,97373.28
2023-02-22T10:56:21.632Z,97371.94
2023-02-22T10:58:48.320Z,97369.34
2023-02-22T11:01:41.259Z,97378.09
2023-02-22T11:05:06.057Z,97376.88
2023-02-22T11:07:36.234Z,97373.09
2023-02-22T11:10:10.834Z,97371.88
2023-02-22T11:12:40.057Z,97374.16
2023-02-22T11:15:19.228Z,97370.97
2023-02-22T11:17:48.142Z,97355.03
2023-02-22T11:20:25.822Z,97366.44
2023-02-22T11:23:01.052Z,97373.69
2023-02-22T11:25:45.075Z,97372.44
2023-02-22T11:28:20.729Z,97371.66
2023-02-22T11:30:51.657Z,97370.03
2023-02-22T11:33:29.405Z,97366.94
2023-02-22T11:36:07.142Z,97375.97
2023-02-22T11:38:37.043Z,97366.81
2023-02-22T11:41:22.891Z,97369.56
2023-02-22T11:43:54.473Z,97361.56
2023-02-22T11:46:34.852Z,97358.84
2023-02-22T11:49:06.079Z,97359.44
2023-02-22T11:51:45.116Z,97353.81
2023-02-22T11:54:39.440Z,97340.38
2023-02-22T11:57:26.524Z,97349.66
2023-02-22T12:00:35.846Z,97348.44
2023-02-22T12:03:40.439Z,97348.25
2023-02-22T12:06:34.591Z,97353.00
2023-02-22T12:09:34.687Z,97350.31
2023-02-22T12:12:43.303Z,97341.75
2023-02-22T12:15:30.208Z,97346.16
2023-02-22T12:18:32.476Z,97348.53
2023-02-22T12:21:07.649Z,97343.91
2023-02-22T12:24:03.293Z,97338.78
2023-02-22T12:33:38.524Z,97351.53
2023-02-22T12:36:14.730Z,97348.59
2023-02-22T12:39:28.766Z,97346.09
2023-02-22T12:41:59.371Z,97347.69
2023-02-22T12:44:55.436Z,97337.94
2023-02-22T12:47:51.962Z,97336.09
2023-02-22T12:50:37.910Z,97332.13
2023-02-22T12:53:29.498Z,97344.28
2023-02-22T12:56:22.102Z,97340.63
2023-02-22T12:59:04.676Z,97332.19
2023-02-22T13:01:45.566Z,97332.19
2023-02-22T13:04:21.452Z,97330.34
2023-02-22T13:07:23.852Z,97321.63
2023-02-22T13:10:35.431Z,97323.34
2023-02-22T13:13:20.244Z,97322.41
2023-02-22T13:16:29.322Z,97327.16
2023-02-22T13:19:15.527Z,97328.94
2023-02-22T13:22:00.984Z,97328.00
2023-02-22T13:24:56.922Z,97337.19
2023-02-22T13:27:34.698Z,97332.41
2023-02-22T13:30:06.188Z,97321.84
2023-02-22T13:32:45.606Z,97328.72
2023-02-22T13:35:18.377Z,97341.03
2023-02-22T13:38:23.113Z,97329.75
2023-02-22T13:40:54.458Z,97329.28
2023-02-22T13:47:17.081Z,97331.34
2023-02-22T13:50:02.029Z,97331.25
2023-02-22T13:52:33.107Z,97330.69
2023-02-22T13:55:11.213Z,97337.00
2023-02-22T13:57:51.521Z,97327.81
2023-02-22T14:00:21.927Z,97333.34
2023-02-22T14:03:10.585Z,97326.91
2023-02-22T14:05:49.613Z,97329.38
2023-02-22T14:08:20.771Z,97329.22
2023-02-22T14:10:59.015Z,97324.84
2023-02-22T14:13:29.311Z,97331.34
2023-02-22T14:16:05.145Z,97328.09
2023-02-22T14:19:06.652Z,97323.28
2023-02-22T14:21:35.331Z,97332.69
2023-02-22T14:24:17.617Z,97327.16
2023-02-22T14:27:09.105Z,97330.06
2023-02-22T14:29:38.952Z,97328.38
2023-02-22T14:32:17.839Z,97339.22
2023-02-22T14:34:51.232Z,97339.88
2023-02-22T14:37:28.412Z,97348.91
2023-02-22T14:40:14.300Z,97337.69
2023-02-22T14:42:48.536Z,97349.28
2023-02-22T14:45:23.627Z,97338.94
2023-02-22T14:48:04.124Z,97341.06
2023-02-22T14:50:39.917Z,97338.47
2023-02-22T14:53:23.537Z,97338.13
2023-02-22T14:55:56.788Z,97337.88
2023-02-22T14:58:52.314Z,97333.97
2023-02-22T15:01:21.589Z,97335.47
2023-02-22T15:04:02.096Z,97331.31
2023-02-22T15:06:35.559Z,97334.78
2023-02-22T15:09:28.965Z,97332.94
2023-02-22T15:12:10.314Z,97331.81
2023-02-22T15:14:41.289Z,97334.50
2023-02-22T15:17:20.772Z,97331.94
2023-02-22T15:19:56.449Z,97334.34
2023-02-22T15:22:27.437Z,97337.75
2023-02-22T15:25:05.368Z,97338.19
2023-02-22T15:27:36.997Z,97337.13
2023-02-22T15:30:33.067Z,97338.16
2023-02-22T15:33:29.950Z,97332.22
2023-02-22T15:36:01.108Z,97341.84
2023-02-22T15:38:30.679Z,97341.06
2023-02-22T15:41:05.976Z,97339.06
2023-02-22T15:43:35.217Z,97344.47
2023-02-22T15:46:06.868Z,97341.88
2023-02-22T15:48:37.546Z,97341.03
2023-02-22T15:51:12.004Z,97342.13
2023-02-22T15:53:43.179Z,97344.72
2023-02-22T15:56:14.871Z,97340.44
2023-02-22T15:58:46.812Z,97347.03
2023-02-22T16:01:18.954Z,97351.25
2023-02-22T16:04:01.037Z,97342.31
2023-02-22T16:07:00.584Z,97354.59
2023-02-22T16:09:30.642Z,97365.44
2023-02-22T16:12:11.055Z,97359.50
2023-02-22T16:14:40.675Z,97364.84
2023-02-22T16:20:45.149Z,97360.59
2023-02-22T16:23:47.905Z,97366.16
2023-02-22T16:26:26.071Z,97361.78
2023-02-22T16:31:59.549Z,97373.59
2023-02-22T16:34:26.848Z,97377.28
2023-02-22T16:36:55.681Z,97380.91
2023-02-22T16:39:32.891Z,97388.84
2023-02-22T16:42:03.965Z,97394.19
2023-02-22T16:44:30.767Z,97394.56
2023-02-22T16:46:59.169Z,97389.25
2023-02-22T16:49:26.428Z,97387.59
2023-02-22T16:51:55.460Z,97391.25
2023-02-22T16:54:34.548Z,97387.91
2023-02-22T16:57:04.137Z,97391.97
2023-02-22T17:00:01.505Z,97403.38
2023-02-22T17:02:40.253Z,97398.97
2023-02-22T17:05:37.779Z,97403.44
2023-02-22T17:08:18.315Z,97402.09
2023-02-22T17:10:46.479Z,97410.28
2023-02-22T17:13:37.288Z,97402.97
2023-02-22T17:16:06.639Z,97402.63
2023-02-22T17:18:36.797Z,97405.59
2023-02-22T17:21:03.892Z,97404.88
2023-02-22T17:23:30.783Z,97408.34
2023-02-22T17:26:03.662Z,97411.81
2023-02-22T17:28:33.952Z,97410.22
2023-02-22T17:31:05.389Z,97420.75
2023-02-22T17:33:34.742Z,97408.91
2023-02-22T17:36:13.429Z,97419.69
2023-02-22T17:38:45.458Z,97415.69
2023-02-22T17:41:15.127Z,97398.44
2023-02-22T17:43:41.982Z,97408.31
2023-02-22T17:46:08.966Z,97404.25
2023-02-22T17:48:41.491Z,97407.00
2023-02-22T17:51:11.029Z,97409.72
2023-02-22T17:53:41.572Z,97408.06
2023-02-22T17:56:13.892Z,97410.13
2023-02-22T17:58:42.111Z,97412.25
2023-02-22T18:01:32.903Z,97404.31
2023-02-22T18:04:01.691Z,97402.44
2023-02-22T18:06:33.168Z,97396.44
2023-02-22T18:09:01.395Z,97407.88
2023-02-22T18:11:35.460Z,97401.13
2023-02-22T18:14:02.279Z,97410.22
2023-02-22T18:16:29.107Z,97407.97
2023-02-22T18:18:55.929Z,97406.38
2023-02-22T18:21:23.603Z,97403.47
2023-02-22T18:23:55.532Z,97405.63
2023-02-22T18:26:22.791Z,97407.19
2023-02-22T18:28:50.771Z,97403.72
2023-02-22T18:31:24.015Z,97398.41
2023-02-22T18:33:54.832Z,97402.22
2023-02-22T18:36:24.335Z,97410.19
2023-02-22T18:38:54.077Z,97411.16
2023-02-22T18:41:21.643Z,97414.72
2023-02-22T18:43:48.237Z,97413.06
2023-02-22T18:46:21.762Z,97413.22
2023-02-22T18:48:53.530Z,97407.13
2023-02-22T18:51:20.021Z,97408.94
2023-02-22T18:53:50.536Z,97415.09
2023-02-22T18:56:22.038Z,97414.59
2023-02-22T18:58:52.592Z,97415.84
2023-02-22T19:01:19.144Z,97415.91
2023-02-22T19:03:48.882Z,97423.88
2023-02-22T19:06:19.011Z,97420.56
2023-02-22T19:08:46.070Z,97424.16
2023-02-22T19:11:20.154Z,97423.38
2023-02-22T19:13:47.637Z,97426.50
2023-02-22T19:16:20.042Z,97429.25
2023-02-22T19:18:47.358Z,97431.06
2023-02-22T19:21:14.694Z,97427.81
2023-02-22T19:23:49.540Z,97429.69
2023-02-22T19:26:24.159Z,97431.53
2023-02-22T19:28:57.015Z,97434.00
2023-02-22T19:31:33.932Z,97437.56
2023-02-22T19:34:09.158Z,97435.88
2023-02-22T19:36:43.739Z,97438.72
2023-02-22T19:39:10.741Z,97440.56
2023-02-22T19:41:39.318Z,97447.75
2023-02-22T19:44:09.078Z,97448.59
2023-02-22T19:46:36.123Z,97441.69
2023-02-22T19:49:04.008Z,97450.53
2023-02-22T19:51:31.837Z,97447.13
2023-02-22T19:54:03.886Z,97452.41
2023-02-22T19:56:36.604Z,97455.88
2023-02-22T19:59:20.021Z,97458.56
2023-02-22T20:01:46.920Z,97463.31
2023-02-22T20:04:21.526Z,97461.63
2023-02-22T20:06:54.733Z,97455.63
2023-02-22T20:09:31.918Z,97459.66
2023-02-22T20:12:00.432Z,97469.13
2023-02-22T20:14:28.662Z,97461.28
2023-02-22T20:16:59.528Z,97463.94
2023-02-22T20:19:26.903Z,97461.56
2023-02-22T20:21:56.748Z,97465.97
2023-02-22T20:24:25.011Z,97469.78
2023-02-22T20:26:58.953Z,97467.31
2023-02-22T20:29:31.432Z,97467.47
2023-02-22T20:32:00.137Z,97467.72
2023-02-22T20:34:31.202Z,97471.22
2023-02-22T20:37:03.323Z,97475.91
2023-02-22T20:39:30.129Z,97474.06
2023-02-22T20:42:00.506Z,97471.56
2023-02-22T20:44:27.258Z,97480.28
2023-02-22T20:46:56.979Z,97472.44
2023-02-22T20:49:23.580Z,97470.94
2023-02-22T20:51:50.302Z,97466.00
2023-02-22T20:54:25.880Z,97477.41
2023-02-22T20:56:53.226Z,97471.44
2023-02-22T20:59:21.100Z,97480.19
2023-02-22T21:01:49.489Z,97474.06
2023-02-22T21:04:18.798Z,97468.97
2023-02-22T21:06:49.737Z,97479.50
2023-02-22T21:09:20.713Z,97475.03
2023-02-22T21:11:47.704Z,97467.19
2023-02-22T21:14:18.696Z,97470.00
2023-02-22T21:16:52.239Z,97473.84
2023-02-22T21:19:29.024Z,97477.34
2023-02-22T21:21:57.995Z,97475.91
2023-02-22T21:24:26.236Z,97475.22
2023-02-22T21:26:52.936Z,97474.38
2023-02-22T21:29:28.234Z,97471.03
2023-02-22T21:31:57.826Z,97471.19
2023-02-22T21:34:25.775Z,97463.28
2023-02-22T21:36:53.380Z,97469.50
2023-02-22T21:39:28.169Z,97472.06
2023-02-22T21:42:00.270Z,97473.88
2023-02-22T21:44:27.413Z,97465.91
2023-02-22T21:46:56.715Z,97472.06
2023-02-22T21:49:23.526Z,97465.25
2023-02-22T21:51:51.794Z,97469.69
2023-02-22T21:54:19.272Z,97479.28
2023-02-22T21:56:53.804Z,97479.22
2023-02-22T21:59:23.824Z,97476.44
2023-02-22T22:01:58.235Z,97470.28
2023-02-22T22:04:30.587Z,97476.44
2023-02-22T22:07:04.411Z,97467.81
2023-02-22T22:09:37.625Z,97471.28
2023-02-22T22:12:10.764Z,97469.47
2023-02-22T22:14:38.079Z,97479.84
2023-02-22T22:17:07.122Z,97479.69
2023-02-22T22:19:51.796Z,97477.16
2023-02-22T22:22:23.210Z,97478.88
2023-02-22T22:24:53.946Z,97479.88
2023-02-22T22:27:21.351Z,97473.09
2023-02-22T22:29:47.981Z,97478.31
2023-02-22T22:32:20.751Z,97480.13
2023-02-22T22:34:49.920Z,97481.78
2023-02-22T22:37:19.450Z,97479.88
2023-02-22T22:39:46.062Z,97480.03
2023-02-22T22:42:14.856Z,97477.84
2023-02-22T22:44:45.646Z,97482.47
2023-02-22T22:47:13.396Z,97484.38
2023-02-22T22:49:40.503Z,97487.78
2023-02-22T22:52:10.228Z,97483.44
2023-02-22T22:54:38.376Z,97486.19
2023-02-22T22:57:06.476Z,97479.34
2023-02-22T22:59:35.340Z,97488.75
2023-02-22T23:02:10.777Z,97480.75
2023-02-22T23:04:38.232Z,97486.94
2023-02-22T23:07:07.719Z,97490.63
2023-02-22T23:09:37.524Z,97487.09
2023-02-22T23:12:31.678Z,97482.81
2023-02-22T23:14:58.517Z,97487.88
2023-02-22T23:17:31.713Z,97486.94
2023-02-22T23:19:58.329Z,97484.16
2023-02-22T23:22:27.995Z,97486.72
2023-02-22T23:24:55.517Z,97489.28
2023-02-22T23:27:24.826Z,97485.84
2023-02-22T23:29:52.544Z,97486.03
2023-02-22T23:32:23.166Z,97492.81
2023-02-22T23:34:49.918Z,97483.97
2023-02-22T23:37:20.933Z,97484.91
2023-02-22T23:39:51.160Z,97490.94
2023-02-22T23:42:25.815Z,97490.19
2023-02-22T23:44:55.874Z,97489.34
2023-02-22T23:47:29.892Z,97487.53
2023-02-22T23:50:04.180Z,97483.28
2023-02-22T23:52:33.587Z,97492.69
2023-02-22T23:55:04.651Z,97487.63
2023-02-22T23:57:32.853Z,97489.38
